Time;durP1;ratioP1;P1;durP2;ratioP2;P2;SDS_P1;SDS_P2;PMS_P1;PMS_P2;Temp;Humidity;BMP_temperature;BMP_pressure;BME280_temperature;BME280_humidity;BME280_pressure;Samples;Min_cycle;Max_cycle;Signal;HPM_P1;HPM_P2
2022/10/05 00:02:17;;;;;;;7.97;3.47;;;12.50;99.90;;;;;;5079335;28;20561;-82
2022/10/05 00:04:44;;;;;;;6.10;3.60;;;12.40;99.90;;;;;;5076514;28;20206;-82
2022/10/05 00:07:15;;;;;;;7.60;3.43;;;12.40;99.90;;;;;;5079481;28;20222;-81
2022/10/05 00:09:43;;;;;;;8.07;4.17;;;12.60;99.90;;;;;;5079423;28;20285;-82
2022/10/05 00:12:15;;;;;;;6.27;3.47;;;12.60;99.90;;;;;;5077929;28;20198;-81
2022/10/05 00:14:43;;;;;;;5.77;3.20;;;12.50;99.90;;;;;;5077253;28;20202;-81
2022/10/05 00:17:15;;;;;;;4.47;3.03;;;12.50;99.90;;;;;;5069636;28;20231;-81
2022/10/05 00:19:45;;;;;;;7.57;3.87;;;12.50;99.90;;;;;;5069100;28;20201;-81
2022/10/05 00:22:15;;;;;;;7.73;3.70;;;12.50;99.90;;;;;;5077843;28;20256;-81
2022/10/05 00:24:42;;;;;;;8.17;3.67;;;12.30;99.90;;;;;;5080911;28;20202;-81
2022/10/05 00:27:19;;;;;;;6.13;3.70;;;12.20;99.90;;;;;;5081640;28;20230;-81
2022/10/05 00:29:46;;;;;;;6.27;3.80;;;12.30;99.90;;;;;;5081398;28;20776;-81
2022/10/05 00:32:14;;;;;;;5.03;4.03;;;12.50;99.90;;;;;;5078838;28;20586;-81
2022/10/05 00:34:42;;;;;;;5.37;3.70;;;12.30;99.90;;;;;;5079320;28;20284;-81
2022/10/05 00:37:09;;;;;;;6.63;3.57;;;12.40;99.90;;;;;;5078496;28;20237;-81
2022/10/05 00:39:38;;;;;;;6.27;3.90;;;12.30;99.90;;;;;;5079081;28;20202;-81
2022/10/05 00:42:18;;;;;;;5.40;3.33;;;12.30;99.90;;;;;;5058226;28;20202;-81
2022/10/05 00:44:52;;;;;;;7.03;3.93;;;12.30;99.90;;;;;;5070344;28;20202;-81
2022/10/05 00:47:41;;;;;;;5.20;3.50;;;12.10;99.90;;;;;;5078727;28;20236;-83
2022/10/05 00:50:41;;;;;;;4.77;3.20;;;12.40;99.90;;;;;;5078542;28;20225;-80
2022/10/05 00:53:16;;;;;;;5.17;3.40;;;12.40;99.90;;;;;;5078510;28;20208;-81
2022/10/05 00:55:54;;;;;;;9.40;4.07;;;12.50;99.90;;;;;;5066134;28;20557;-83
2022/10/05 00:58:32;;;;;;;7.20;3.70;;;12.60;99.90;;;;;;5063322;28;20212;-81
2022/10/05 01:01:09;;;;;;;6.40;3.73;;;12.50;99.90;;;;;;5068611;28;20225;-82
2022/10/05 01:03:49;;;;;;;6.67;3.67;;;12.60;99.90;;;;;;5057375;28;20692;-82
2022/10/05 01:06:24;;;;;;;6.43;3.63;;;12.40;99.90;;;;;;5077997;28;20226;-82
2022/10/05 01:09:02;;;;;;;6.97;3.83;;;12.40;99.90;;;;;;5078602;28;20708;-82
2022/10/05 01:11:33;;;;;;;4.63;3.67;;;12.40;99.90;;;;;;5078442;28;20210;-82
2022/10/05 01:14:08;;;;;;;6.13;3.77;;;12.60;99.90;;;;;;5079108;28;20207;-82
2022/10/05 01:16:44;;;;;;;7.77;3.80;;;12.30;99.90;;;;;;5078952;28;20234;-82
2022/10/05 01:19:29;;;;;;;9.70;4.17;;;12.50;99.90;;;;;;5078035;28;20202;-82
2022/10/05 01:22:04;;;;;;;4.60;3.13;;;12.40;99.90;;;;;;5078643;28;20202;-82
2022/10/05 01:24:44;;;;;;;6.60;3.07;;;12.30;99.90;;;;;;5079662;28;20212;-82
2022/10/05 01:27:21;;;;;;;6.50;3.67;;;12.20;99.90;;;;;;5078343;28;20230;-82
2022/10/05 01:29:54;;;;;;;6.07;3.90;;;12.10;99.90;;;;;;5077572;28;20232;-82
2022/10/05 01:32:26;;;;;;;4.60;3.80;;;11.90;99.90;;;;;;5080188;28;20210;-82
2022/10/05 01:34:59;;;;;;;6.17;3.60;;;11.70;99.90;;;;;;5066112;28;20214;-82
2022/10/05 01:37:30;;;;;;;7.63;4.50;;;11.90;99.90;;;;;;5074503;28;20230;-81
2022/10/05 01:40:06;;;;;;;9.80;3.80;;;11.80;99.90;;;;;;5077833;28;20212;-82
2022/10/05 01:42:44;;;;;;;7.57;4.57;;;11.80;99.90;;;;;;5079540;28;20198;-83
2022/10/05 01:45:20;;;;;;;9.33;3.90;;;11.80;99.90;;;;;;5079127;28;20202;-82
2022/10/05 01:47:50;;;;;;;5.97;3.97;;;11.70;99.90;;;;;;5077289;28;20214;-82
2022/10/05 01:50:27;;;;;;;7.60;4.17;;;11.70;99.90;;;;;;5077075;28;20230;-82
2022/10/05 01:53:04;;;;;;;5.87;3.87;;;11.90;99.90;;;;;;5074379;28;20232;-81
2022/10/05 01:55:39;;;;;;;5.83;4.03;;;11.80;99.90;;;;;;5078381;28;20204;-82
2022/10/05 01:58:19;;;;;;;8.40;4.23;;;11.90;99.90;;;;;;5078574;28;20202;-81
2022/10/05 02:00:56;;;;;;;11.33;4.27;;;12.20;99.90;;;;;;5058526;28;20207;-82
2022/10/05 02:03:28;;;;;;;5.33;3.97;;;12.70;99.90;;;;;;5076190;28;20201;-81
2022/10/05 02:05:58;;;;;;;7.83;4.20;;;12.70;99.90;;;;;;5077817;28;20202;-82
2022/10/05 02:08:31;;;;;;;6.07;4.47;;;12.70;99.90;;;;;;5075403;28;20198;-82
2022/10/05 02:11:02;;;;;;;8.07;4.33;;;12.60;99.90;;;;;;5065148;28;20219;-82
2022/10/05 02:13:38;;;;;;;5.23;4.17;;;12.80;99.90;;;;;;5075158;28;20210;-82
2022/10/05 02:16:10;;;;;;;7.90;4.00;;;12.60;99.90;;;;;;5078411;28;20589;-82
2022/10/05 02:18:41;;;;;;;4.93;3.77;;;12.70;99.90;;;;;;5075006;28;20198;-81
2022/10/05 02:21:08;;;;;;;5.03;3.70;;;12.60;99.90;;;;;;5075487;28;20194;-81
2022/10/05 02:23:39;;;;;;;6.13;3.90;;;12.50;99.90;;;;;;5075737;28;20228;-81
2022/10/05 02:26:08;;;;;;;9.70;5.00;;;12.50;99.90;;;;;;5076484;28;20647;-81
2022/10/05 02:28:41;;;;;;;6.47;4.13;;;12.50;99.90;;;;;;5076005;28;20202;-79
2022/10/05 02:31:14;;;;;;;8.97;4.20;;;12.50;99.90;;;;;;5075180;28;20226;-79
2022/10/05 02:33:40;;;;;;;7.10;4.17;;;12.40;99.90;;;;;;5075292;28;20221;-78
2022/10/05 02:36:13;;;;;;;7.80;4.60;;;12.40;99.90;;;;;;5076048;28;20728;-79
2022/10/05 02:38:52;;;;;;;6.67;4.00;;;12.50;99.90;;;;;;5073944;28;20224;-79
2022/10/05 02:41:32;;;;;;;5.93;3.97;;;12.60;99.90;;;;;;5064332;28;20206;-79
2022/10/05 02:44:07;;;;;;;7.07;3.93;;;12.70;99.90;;;;;;5071741;28;20213;-79
2022/10/05 02:46:40;;;;;;;5.90;4.40;;;12.80;99.90;;;;;;5068406;28;20681;-79
2022/10/05 02:49:17;;;;;;;6.70;4.10;;;12.60;99.90;;;;;;5071067;28;20216;-78
2022/10/05 02:51:50;;;;;;;6.13;4.27;;;12.70;99.90;;;;;;5058330;28;20255;-79
2022/10/05 02:54:34;;;;;;;5.73;4.10;;;12.70;99.90;;;;;;5063925;28;20580;-79
2022/10/05 02:57:09;;;;;;;5.97;4.00;;;12.80;99.90;;;;;;5057001;28;20563;-79
2022/10/05 02:59:40;;;;;;;7.23;3.93;;;12.80;99.90;;;;;;5074804;28;20206;-79
2022/10/05 03:02:14;;;;;;;6.63;3.93;;;12.80;99.90;;;;;;5073549;28;20205;-79
2022/10/05 03:04:46;;;;;;;7.33;4.37;;;12.90;99.90;;;;;;5074220;28;20205;-79
2022/10/05 03:07:17;;;;;;;6.27;4.20;;;12.80;99.90;;;;;;5073940;28;20717;-78
2022/10/05 03:09:52;;;;;;;7.60;4.57;;;12.90;99.90;;;;;;5071577;28;20241;-81
2022/10/05 03:12:32;;;;;;;7.53;4.43;;;12.90;99.90;;;;;;5072231;28;20653;-82
2022/10/05 03:15:06;;;;;;;7.67;4.00;;;12.80;99.90;;;;;;5074418;28;20558;-82
2022/10/05 03:17:41;;;;;;;5.93;3.97;;;12.90;99.90;;;;;;5073806;28;20630;-81
2022/10/05 03:20:19;;;;;;;9.83;4.67;;;12.80;99.90;;;;;;5072345;28;20216;-82
2022/10/05 03:22:50;;;;;;;6.53;4.73;;;12.70;99.90;;;;;;5073359;28;20213;-83
2022/10/05 03:25:36;;;;;;;7.90;4.70;;;12.80;99.90;;;;;;5073462;28;20662;-83
2022/10/05 03:28:09;;;;;;;7.53;4.60;;;13.00;99.90;;;;;;5072978;28;20658;-83
2022/10/05 03:30:40;;;;;;;6.87;4.43;;;12.90;99.90;;;;;;5073304;28;20230;-82
2022/10/05 03:33:16;;;;;;;6.33;3.97;;;13.00;99.90;;;;;;5072274;28;20547;-82
2022/10/05 03:35:53;;;;;;;7.33;4.33;;;12.90;99.90;;;;;;5070112;28;20321;-82
2022/10/05 03:38:29;;;;;;;8.10;4.10;;;12.80;99.90;;;;;;5056994;28;20201;-82
2022/10/05 03:41:03;;;;;;;9.50;4.30;;;12.90;99.90;;;;;;5073025;28;20198;-83
2022/10/05 03:44:00;;;;;;;4.77;3.90;;;12.80;99.90;;;;;;5071657;28;20210;-83
2022/10/05 03:46:38;;;;;;;5.83;4.27;;;12.90;99.90;;;;;;5073016;28;20582;-82
2022/10/05 03:49:16;;;;;;;9.10;4.67;;;12.80;99.90;;;;;;5072665;28;20204;-82
2022/10/05 03:51:50;;;;;;;8.97;4.23;;;12.80;99.90;;;;;;5073553;28;20209;-82
2022/10/05 03:54:22;;;;;;;7.90;4.03;;;12.70;99.90;;;;;;5073481;28;20666;-83
2022/10/05 03:56:53;;;;;;;6.70;4.40;;;12.60;99.90;;;;;;5072177;28;20241;-82
2022/10/05 03:59:25;;;;;;;6.20;4.70;;;12.60;99.90;;;;;;5073450;28;20202;-83
2022/10/05 04:01:54;;;;;;;7.43;4.33;;;12.50;99.90;;;;;;5073408;28;20202;-83
2022/10/05 04:04:28;;;;;;;7.07;4.40;;;12.60;99.90;;;;;;5070206;28;20202;-83
2022/10/05 04:06:57;;;;;;;7.27;4.90;;;12.50;99.90;;;;;;5068070;28;20227;-82
2022/10/05 04:09:29;;;;;;;8.70;4.90;;;12.50;99.90;;;;;;5050938;28;20578;-86
2022/10/05 04:12:03;;;;;;;6.03;4.07;;;12.60;99.90;;;;;;5059486;28;20277;-84
2022/10/05 04:14:36;;;;;;;9.77;4.80;;;12.70;99.90;;;;;;5073530;28;20250;-83
2022/10/05 04:17:09;;;;;;;13.63;7.47;;;12.70;99.90;;;;;;5074365;28;20313;-83
2022/10/05 04:19:43;;;;;;;7.20;4.73;;;12.60;99.90;;;;;;5073769;28;20203;-83
2022/10/05 04:22:14;;;;;;;6.03;3.93;;;12.60;99.90;;;;;;5067958;28;20214;-82
2022/10/05 04:24:48;;;;;;;7.77;4.53;;;12.60;99.90;;;;;;5059470;28;20294;-83
2022/10/05 04:27:17;;;;;;;6.43;4.70;;;12.60;99.90;;;;;;5071143;28;20309;-82
2022/10/05 04:29:50;;;;;;;7.63;4.60;;;12.60;99.90;;;;;;5074207;28;20707;-83
2022/10/05 04:32:29;;;;;;;6.23;4.53;;;12.60;99.90;;;;;;5073964;28;20594;-82
2022/10/05 04:35:13;;;;;;;8.37;4.40;;;12.60;99.90;;;;;;5074156;28;20202;-82
2022/10/05 04:37:47;;;;;;;6.13;4.30;;;12.60;99.90;;;;;;5074280;28;20222;-83
2022/10/05 04:40:32;;;;;;;6.90;4.80;;;12.70;99.90;;;;;;5074159;28;20579;-82
2022/10/05 04:43:08;;;;;;;10.03;5.10;;;12.80;99.90;;;;;;5075222;28;20577;-82
2022/10/05 04:45:49;;;;;;;12.40;4.87;;;12.80;99.90;;;;;;5075848;28;20198;-82
2022/10/05 04:48:40;;;;;;;7.83;4.27;;;12.80;99.90;;;;;;5075196;28;20206;-82
2022/10/05 04:51:23;;;;;;;8.00;4.57;;;12.90;99.90;;;;;;5074614;28;20229;-82
2022/10/05 04:53:56;;;;;;;7.63;5.13;;;12.90;99.90;;;;;;5074886;28;20561;-82
2022/10/05 04:56:34;;;;;;;8.27;4.67;;;13.00;99.90;;;;;;5074695;28;20226;-82
2022/10/05 04:59:23;;;;;;;9.77;4.83;;;13.00;99.90;;;;;;5074474;28;20202;-83
2022/10/05 05:02:13;;;;;;;13.63;4.80;;;13.10;99.90;;;;;;5069674;28;20210;-82
2022/10/05 05:04:54;;;;;;;9.00;4.67;;;13.10;99.90;;;;;;5073808;28;20209;-83
2022/10/05 05:07:36;;;;;;;7.03;4.83;;;13.00;99.90;;;;;;5074454;28;20222;-82
2022/10/05 05:10:34;;;;;;;7.60;4.37;;;13.00;99.90;;;;;;5076042;28;20229;-82
2022/10/05 05:13:12;;;;;;;6.83;4.40;;;12.80;99.90;;;;;;5078585;28;20199;-82
2022/10/05 05:15:46;;;;;;;7.00;4.43;;;12.80;99.90;;;;;;5077962;28;20206;-82
2022/10/05 05:18:38;;;;;;;10.63;4.73;;;12.70;99.90;;;;;;5077892;28;20225;-82
2022/10/05 05:21:13;;;;;;;6.67;4.30;;;12.80;99.90;;;;;;5077114;28;20543;-82
2022/10/05 05:23:48;;;;;;;9.13;5.10;;;12.70;99.90;;;;;;5078408;28;20196;-79
2022/10/05 05:26:24;;;;;;;8.50;4.97;;;12.70;99.90;;;;;;5078008;28;20229;-80
2022/10/05 05:28:58;;;;;;;5.90;4.70;;;12.70;99.90;;;;;;5077980;28;20284;-80
2022/10/05 05:31:33;;;;;;;7.63;4.80;;;12.70;99.90;;;;;;5077389;28;20280;-80
2022/10/05 05:34:06;;;;;;;9.27;4.80;;;12.70;99.90;;;;;;5077698;28;20186;-82
2022/10/05 05:36:49;;;;;;;6.93;4.83;;;12.60;99.90;;;;;;5077798;28;20225;-82
2022/10/05 05:39:24;;;;;;;7.80;4.50;;;12.70;99.90;;;;;;5077546;28;20209;-82
2022/10/05 05:42:00;;;;;;;8.87;4.90;;;12.80;99.90;;;;;;5077276;28;20197;-82
2022/10/05 05:44:29;;;;;;;6.40;4.70;;;12.70;99.90;;;;;;5077235;28;20201;-82
2022/10/05 05:47:00;;;;;;;10.37;4.50;;;12.70;99.90;;;;;;5076829;28;20300;-82
2022/10/05 05:49:41;;;;;;;7.87;4.50;;;12.60;99.90;;;;;;5077132;28;20206;-82
2022/10/05 05:52:16;;;;;;;7.43;4.87;;;12.60;99.90;;;;;;5077242;28;20218;-82
2022/10/05 05:54:50;;;;;;;8.13;4.60;;;12.50;99.90;;;;;;5079078;28;20204;-82
2022/10/05 05:57:23;;;;;;;9.97;4.47;;;12.60;99.90;;;;;;5077181;28;20244;-82
2022/10/05 05:59:59;;;;;;;8.57;5.07;;;12.60;99.90;;;;;;5077128;28;20210;-83
2022/10/05 06:02:31;;;;;;;7.90;5.03;;;12.50;99.90;;;;;;5076678;28;20581;-82
2022/10/05 06:05:05;;;;;;;7.97;5.13;;;12.50;99.90;;;;;;5076958;28;20210;-82
2022/10/05 06:07:34;;;;;;;15.10;6.10;;;12.20;99.90;;;;;;5076685;28;20233;-82
2022/10/05 06:10:15;;;;;;;8.23;5.07;;;12.00;99.90;;;;;;5076547;28;20210;-82
2022/10/05 06:12:45;;;;;;;11.50;5.80;;;11.70;99.90;;;;;;5076882;28;20225;-82
2022/10/05 06:15:22;;;;;;;10.03;5.07;;;11.50;99.90;;;;;;5076412;28;20577;-82
2022/10/05 06:17:53;;;;;;;13.03;5.47;;;11.50;99.90;;;;;;5077090;28;20717;-82
2022/10/05 06:20:27;;;;;;;19.07;5.87;;;11.50;99.90;;;;;;5075592;28;20293;-83
2022/10/05 06:22:58;;;;;;;11.17;6.00;;;11.40;99.90;;;;;;5076572;28;20199;-82
2022/10/05 06:25:38;;;;;;;8.37;5.60;;;11.40;99.90;;;;;;5066750;28;20571;-82
2022/10/05 06:28:10;;;;;;;10.33;5.57;;;11.60;99.90;;;;;;5065880;28;20612;-82
2022/10/05 06:30:48;;;;;;;11.03;5.60;;;11.70;99.90;;;;;;5075056;28;20264;-82
2022/10/05 06:33:31;;;;;;;8.73;5.53;;;11.70;99.90;;;;;;5076209;28;20573;-82
2022/10/05 06:36:12;;;;;;;11.30;5.97;;;11.70;99.90;;;;;;5074104;28;20228;-82
2022/10/05 06:39:05;;;;;;;9.70;5.30;;;11.70;99.90;;;;;;5075133;28;20210;-82
2022/10/05 06:41:47;;;;;;;10.37;5.70;;;11.90;99.90;;;;;;5069338;28;20194;-83
2022/10/05 06:44:17;;;;;;;10.80;5.50;;;11.90;99.90;;;;;;5064956;28;20199;-82
2022/10/05 06:46:55;;;;;;;11.87;5.37;;;11.80;99.90;;;;;;5072970;28;20240;-83
2022/10/05 06:49:25;;;;;;;12.83;5.60;;;12.00;99.90;;;;;;5065065;28;20206;-83
2022/10/05 06:51:56;;;;;;;10.17;5.63;;;12.10;99.90;;;;;;5053278;28;20665;-83
2022/10/05 06:54:51;;;;;;;9.57;5.60;;;12.10;99.90;;;;;;5054041;28;20222;-82
2022/10/05 06:57:54;;;;;;;8.07;5.13;;;12.20;99.90;;;;;;5055416;28;20222;-82
2022/10/05 07:00:23;;;;;;;9.27;5.93;;;12.40;99.90;;;;;;5066162;28;20581;-82
2022/10/05 07:02:57;;;;;;;9.43;5.30;;;12.50;99.90;;;;;;5075317;28;20573;-82
2022/10/05 07:05:45;;;;;;;9.27;6.23;;;12.60;99.90;;;;;;5074688;28;20206;-82
2022/10/05 07:08:16;;;;;;;6.50;5.43;;;12.60;99.90;;;;;;5075207;28;20249;-82
2022/10/05 07:10:56;;;;;;;9.83;5.33;;;12.80;99.90;;;;;;5073563;28;20232;-83
2022/10/05 07:13:37;;;;;;;8.97;5.73;;;13.00;99.90;;;;;;5071948;28;20213;-82
2022/10/05 07:16:11;;;;;;;8.83;5.60;;;13.00;99.90;;;;;;5073914;28;20222;-80
2022/10/05 07:18:53;;;;;;;8.60;5.47;;;13.20;99.90;;;;;;5073458;28;20218;-82
2022/10/05 07:21:31;;;;;;;10.30;5.93;;;13.40;99.90;;;;;;5074453;28;20203;-83
2022/10/05 07:24:08;;;;;;;11.90;5.70;;;13.60;99.90;;;;;;5074475;28;20279;-83
2022/10/05 07:26:40;;;;;;;8.57;5.23;;;13.80;99.90;;;;;;5074431;28;20230;-82
2022/10/05 07:29:23;;;;;;;9.53;5.80;;;13.90;99.90;;;;;;5063816;28;20780;-83
2022/10/05 07:31:58;;;;;;;8.53;5.50;;;14.00;99.90;;;;;;5059517;28;20218;-83
2022/10/05 07:34:36;;;;;;;8.57;5.60;;;14.40;99.90;;;;;;5050375;28;20187;-83
2022/10/05 07:40:03;;;;;;;8.87;5.10;;;14.60;99.90;;;;;;5073970;28;20209;-83
2022/10/05 07:42:42;;;;;;;9.00;5.20;;;14.50;99.90;;;;;;5072416;28;20201;-83
2022/10/05 07:45:19;;;;;;;8.33;5.10;;;14.50;99.90;;;;;;5074689;28;20662;-82
2022/10/05 07:47:53;;;;;;;9.30;5.17;;;14.50;99.90;;;;;;5073941;28;20233;-83
2022/10/05 07:50:25;;;;;;;10.57;5.80;;;14.50;99.90;;;;;;5071306;28;20688;-83
2022/10/05 07:52:56;;;;;;;10.90;4.80;;;14.50;99.90;;;;;;5072445;28;20606;-83
2022/10/05 07:55:25;;;;;;;9.30;5.17;;;14.50;99.90;;;;;;5073751;28;20560;-83
2022/10/05 07:58:04;;;;;;;10.30;5.87;;;14.50;99.90;;;;;;5073794;28;20340;-83
2022/10/05 08:00:48;;;;;;;6.83;5.30;;;14.50;99.90;;;;;;5070853;28;20204;-83
2022/10/05 08:03:26;;;;;;;7.00;5.13;;;14.50;99.90;;;;;;5073945;28;20205;-82
2022/10/05 08:05:54;;;;;;;9.20;5.97;;;14.50;99.90;;;;;;5055746;28;20570;-83
2022/10/05 08:08:24;;;;;;;9.83;5.57;;;14.60;99.90;;;;;;5073839;28;20214;-83
2022/10/05 08:10:58;;;;;;;9.13;5.83;;;14.70;99.90;;;;;;5071292;28;20214;-83
2022/10/05 08:13:31;;;;;;;7.30;5.22;;;14.70;99.90;;;;;;5071849;28;20247;-83
2022/10/05 08:16:03;;;;;;;9.77;5.50;;;14.90;99.90;;;;;;5073517;28;20305;-83
2022/10/05 08:18:43;;;;;;;9.50;5.72;;;14.90;99.90;;;;;;5071789;28;20292;-81
2022/10/05 08:21:12;;;;;;;7.60;5.20;;;15.00;99.90;;;;;;5070991;28;20289;-80
2022/10/05 08:23:46;;;;;;;11.53;5.73;;;14.90;99.90;;;;;;5073486;28;20261;-80
2022/10/05 08:26:22;;;;;;;7.50;5.22;;;14.70;99.90;;;;;;5071863;28;20232;-80
2022/10/05 08:28:57;;;;;;;12.97;5.77;;;14.70;99.90;;;;;;5074262;28;20209;-80
2022/10/05 08:31:28;;;;;;;7.37;5.13;;;14.80;99.90;;;;;;5073026;28;20713;-83
2022/10/05 08:33:59;;;;;;;6.67;5.33;;;14.80;99.90;;;;;;5073615;28;20265;-83
2022/10/05 08:36:43;;;;;;;7.37;5.40;;;14.90;99.90;;;;;;5073728;28;20313;-84
2022/10/05 08:39:14;;;;;;;7.67;5.43;;;15.00;99.90;;;;;;5073136;28;20234;-83
2022/10/05 08:42:17;;;;;;;9.10;5.17;;;15.10;99.90;;;;;;5071435;28;20805;-83
2022/10/05 08:45:14;;;;;;;8.80;5.27;;;15.30;98.80;;;;;;5064115;28;20299;-83
2022/10/05 08:48:12;;;;;;;9.63;5.50;;;15.40;10.50;;;;;;5024734;28;20230;-83
2022/10/05 08:50:59;;;;;;;7.20;5.27;;;15.40;1.00;;;;;;5057530;28;20224;-83
2022/10/05 08:53:52;;;;;;;9.43;5.70;;;15.50;1.00;;;;;;5077319;28;20209;-83
2022/10/05 08:56:39;;;;;;;6.15;4.82;;;15.50;1.00;;;;;;5076544;28;20222;-83
2022/10/05 08:59:26;;;;;;;7.95;5.07;;;15.60;1.00;;;;;;5076482;28;20204;-83
2022/10/05 09:02:17;;;;;;;6.82;4.93;;;15.70;1.00;;;;;;5077589;28;20202;-83
2022/10/05 09:04:59;;;;;;;7.55;5.10;;;15.90;1.00;;;;;;5077479;28;20658;-83
2022/10/05 09:07:50;;;;;;;9.52;5.00;;;16.00;1.00;;;;;;5076650;28;20706;-83
2022/10/05 09:10:47;;;;;;;9.20;5.40;;;16.00;1.00;;;;;;5076045;28;20209;-83
2022/10/05 09:13:46;;;;;;;9.80;5.22;;;15.90;99.90;;;;;;5059679;28;20245;-83
2022/10/05 09:16:53;;;;;;;9.05;5.90;;;16.00;1.00;;;;;;5058169;28;20222;-83
2022/10/05 09:19:46;;;;;;;7.00;5.50;;;16.10;99.90;;;;;;5055107;28;20199;-83
2022/10/05 09:22:21;;;;;;;7.97;5.13;;;16.00;1.00;;;;;;5055671;28;20205;-83
2022/10/05 09:24:55;;;;;;;8.57;5.32;;;16.10;1.00;;;;;;5076338;28;20208;-84
2022/10/05 09:27:37;;;;;;;7.53;5.00;;;16.20;1.00;;;;;;5075673;28;20237;-83
2022/10/05 09:30:22;;;;;;;8.27;5.03;;;16.40;16.20;;;;;;5076630;28;20220;-83
2022/10/05 09:33:29;;;;;;;7.65;5.28;;;16.50;1.00;;;;;;5075468;28;20226;-81
2022/10/05 09:36:37;;;;;;;6.85;5.05;;;16.40;99.90;;;;;;5076612;28;20213;-80
2022/10/05 09:39:52;;;;;;;7.28;4.93;;;16.30;1.00;;;;;;5075353;28;20210;-81
2022/10/05 09:42:55;;;;;;;10.18;5.57;;;16.20;99.90;;;;;;5075010;28;20533;-80
2022/10/05 09:45:52;;;;;;;8.95;5.63;;;16.20;1.00;;;;;;5076899;28;20208;-81
2022/10/05 09:48:53;;;;;;;6.22;5.00;;;16.20;1.00;;;;;;5045697;28;20213;-81
2022/10/05 09:51:52;;;;;;;9.05;5.15;;;16.20;99.90;;;;;;5075851;28;20207;-81
2022/10/05 09:55:00;;;;;;;7.25;5.30;;;16.30;1.00;;;;;;5075995;28;20198;-81
2022/10/05 09:58:02;;;;;;;7.57;4.82;;;16.20;99.90;;;;;;5061963;28;20562;-80
2022/10/05 10:00:42;;;;;;;7.22;5.45;;;16.20;1.00;;;;;;5055339;28;20251;-80
2022/10/05 10:03:59;;;;;;;8.45;6.18;;;16.20;99.90;;;;;;5056728;28;20206;-81
2022/10/05 10:07:03;;;;;;;9.40;5.80;;;16.20;1.00;;;;;;5067081;28;20234;-81
2022/10/05 10:09:38;;;;;;;8.50;5.00;;;16.20;34.10;;;;;;5075766;28;20313;-80
2022/10/05 10:12:33;;;;;;;9.25;6.15;;;16.30;99.90;;;;;;5074341;28;20225;-81
2022/10/05 10:15:23;;;;;;;8.50;6.05;;;16.30;99.90;;;;;;5065298;28;20202;-81
2022/10/05 10:18:30;;;;;;;8.77;6.13;;;16.30;1.00;;;;;;5075816;28;20230;-80
2022/10/05 10:21:16;;;;;;;9.23;6.10;;;16.30;1.00;;;;;;5067975;28;20202;-81
2022/10/05 10:23:59;;;;;;;7.47;5.63;;;16.20;1.00;;;;;;5075230;28;20213;-80
2022/10/05 10:26:58;;;;;;;8.48;5.85;;;16.30;1.00;;;;;;5075394;28;20704;-80
2022/10/05 10:29:45;;;;;;;10.23;5.57;;;16.40;1.00;;;;;;5064125;28;20579;-80
2022/10/05 10:32:36;;;;;;;8.60;5.43;;;16.40;1.00;;;;;;5055856;28;20387;-80
2022/10/05 10:35:22;;;;;;;5.57;4.93;;;16.30;99.90;;;;;;5072841;28;20529;-80
2022/10/05 10:38:22;;;;;;;7.00;5.88;;;16.30;1.00;;;;;;5075717;28;20727;-80
2022/10/05 10:41:24;;;;;;;7.65;5.65;;;16.20;99.90;;;;;;5074699;28;20207;-80
2022/10/05 10:44:17;;;;;;;8.52;5.72;;;16.10;99.90;;;;;;5060443;28;20285;-80
2022/10/05 10:46:58;;;;;;;10.55;6.63;;;16.10;1.00;;;;;;5072166;28;20219;-81
2022/10/05 10:49:39;;;;;;;8.57;6.10;;;16.10;1.00;;;;;;5066915;28;20202;-82
2022/10/05 10:52:32;;;;;;;7.80;6.80;;;16.10;99.90;;;;;;5059897;28;20222;-80
2022/10/05 10:55:29;;;;;;;9.82;6.72;;;16.10;1.00;;;;;;5071364;28;20213;-81
2022/10/05 10:58:21;;;;;;;7.82;6.07;;;16.20;1.00;;;;;;5074195;28;20222;-81
2022/10/05 11:00:56;;;;;;;8.68;6.50;;;16.20;1.00;;;;;;5053755;28;20203;-81
2022/10/05 11:04:00;;;;;;;8.48;6.60;;;16.20;27.20;;;;;;5058185;28;20215;-80
2022/10/05 11:06:58;;;;;;;6.15;5.45;;;16.20;1.00;;;;;;5074536;28;20572;-83
2022/10/05 11:10:05;;;;;;;8.13;5.78;;;16.20;1.00;;;;;;5074209;28;20222;-83
2022/10/05 11:13:06;;;;;;;9.70;6.00;;;16.30;1.00;;;;;;5055407;28;20654;-83
2022/10/05 11:15:56;;;;;;;10.00;5.90;;;16.20;1.00;;;;;;5074068;28;20206;-83
2022/10/05 11:18:33;;;;;;;8.00;5.88;;;16.30;65.40;;;;;;5075035;28;20210;-82
2022/10/05 11:21:27;;;;;;;5.78;4.93;;;16.20;1.00;;;;;;5075322;28;20205;-83
2022/10/05 11:24:27;;;;;;;7.00;5.53;;;16.20;1.00;;;;;;5076080;28;20193;-82
2022/10/05 11:27:12;;;;;;;8.68;5.57;;;16.40;24.40;;;;;;5071378;28;20301;-82
2022/10/05 11:30:11;;;;;;;8.60;5.80;;;16.30;1.00;;;;;;5068942;28;20212;-83
2022/10/05 11:33:01;;;;;;;6.55;5.30;;;16.40;1.00;;;;;;5074061;28;20206;-84
2022/10/05 11:35:52;;;;;;;9.00;6.35;;;16.50;99.90;;;;;;5074356;28;20206;-83
2022/10/05 11:38:35;;;;;;;5.78;4.80;;;16.50;99.90;;;;;;5073730;28;20560;-84
2022/10/05 11:41:36;;;;;;;8.63;5.45;;;16.80;1.00;;;;;;5074048;28;20217;-84
2022/10/05 11:44:37;;;;;;;6.47;4.70;;;16.70;1.00;;;;;;5074091;28;20194;-82
2022/10/05 11:47:13;;;;;;;6.97;5.00;;;16.80;1.00;;;;;;5073999;28;20222;-82
2022/10/05 11:49:46;;;;;;;8.32;4.70;;;16.90;1.00;;;;;;5074593;28;20205;-82
2022/10/05 11:52:21;;;;;;;8.05;5.03;;;16.90;99.90;;;;;;5073002;28;20206;-83
2022/10/05 11:55:09;;;;;;;6.20;4.45;;;16.90;1.00;;;;;;5073497;28;20178;-82
2022/10/05 11:57:42;;;;;;;9.10;4.75;;;17.30;1.00;;;;;;5073145;28;20276;-82
2022/10/05 12:00:15;;;;;;;5.32;3.83;;;17.60;24.30;;;;;;5072496;28;20225;-82
2022/10/05 12:03:20;;;;;;;5.03;3.42;;;18.10;1.00;;;;;;5073911;28;20198;-82
2022/10/05 12:06:01;;;;;;;5.68;4.30;;;18.20;1.00;;;;;;5073748;28;20531;-82
2022/10/05 12:08:39;;;;;;;4.60;3.58;;;18.00;1.00;;;;;;5074721;28;20188;-82
2022/10/05 12:11:16;;;;;;;4.57;4.18;;;18.00;1.00;;;;;;5073715;28;20662;-84
2022/10/05 12:13:51;;;;;;;5.50;4.20;;;17.90;1.00;;;;;;5073740;28;20591;-84
2022/10/05 12:16:24;;;;;;;6.15;3.78;;;18.40;99.90;;;;;;5073694;28;20218;-85
2022/10/05 12:18:58;;;;;;;6.32;3.30;;;18.50;1.00;;;;;;5073925;28;20199;-82
2022/10/05 12:21:35;;;;;;;4.45;3.72;;;18.60;99.90;;;;;;5073788;28;20193;-82
2022/10/05 12:24:07;;;;;;;4.53;3.60;;;18.50;1.00;;;;;;5073865;28;20182;-82
2022/10/05 12:26:40;;;;;;;3.72;3.42;;;18.10;1.00;;;;;;5073778;28;20234;-82
2022/10/05 12:29:17;;;;;;;3.25;3.05;;;18.10;99.90;;;;;;5074242;28;20198;-82
2022/10/05 12:31:55;;;;;;;6.20;3.75;;;18.10;99.90;;;;;;5072537;28;20205;-82
2022/10/05 12:34:32;;;;;;;5.05;3.22;;;18.00;99.90;;;;;;5074216;28;20202;-83
2022/10/05 12:37:04;;;;;;;4.03;3.38;;;18.10;1.00;;;;;;5053764;28;20590;-82
2022/10/05 12:39:41;;;;;;;4.22;3.20;;;18.30;1.00;;;;;;5059272;28;20277;-82
2022/10/05 12:42:24;;;;;;;4.57;2.92;;;18.70;1.00;;;;;;5072879;28;20225;-82
2022/10/05 12:45:04;;;;;;;4.43;2.97;;;19.60;99.90;;;;;;5073001;28;20217;-83
2022/10/05 12:47:41;;;;;;;4.22;3.75;;;19.50;1.00;;;;;;5073194;28;20327;-82
2022/10/05 12:50:19;;;;;;;3.47;2.90;;;19.80;99.90;;;;;;5073060;28;20274;-83
2022/10/05 12:52:56;;;;;;;4.90;2.95;;;20.00;1.00;;;;;;5075285;28;20217;-83
2022/10/05 12:55:29;;;;;;;2.83;2.53;;;20.40;1.00;;;;;;5066549;28;20293;-83
2022/10/05 12:58:11;;;;;;;6.28;2.70;;;20.50;1.00;;;;;;5058191;28;20222;-83
2022/10/05 13:00:47;;;;;;;3.15;2.50;;;20.20;1.00;;;;;;5069324;28;20194;-83
2022/10/05 13:03:23;;;;;;;3.75;2.33;;;20.10;1.00;;;;;;5072127;28;20657;-83
2022/10/05 13:05:56;;;;;;;3.53;2.72;;;20.30;99.90;;;;;;5072154;28;20684;-83
2022/10/05 13:08:31;;;;;;;11.25;7.50;;;20.40;99.90;;;;;;5071633;28;20210;-83
2022/10/05 13:11:07;;;;;;;4.38;2.67;;;20.50;1.00;;;;;;5070105;28;20220;-83
2022/10/05 13:13:46;;;;;;;4.60;2.53;;;20.90;99.90;;;;;;5070253;28;20717;-82
2022/10/05 13:16:22;;;;;;;4.60;2.72;;;20.80;99.90;;;;;;5070952;28;20297;-82
2022/10/05 13:19:05;;;;;;;5.35;3.90;;;20.70;99.90;;;;;;5071094;28;20550;-82
2022/10/05 13:21:57;;;;;;;2.90;2.70;;;20.90;1.00;;;;;;5071066;28;20285;-82
2022/10/05 13:24:29;;;;;;;4.53;2.70;;;20.70;99.90;;;;;;5072180;28;20205;-82
2022/10/05 13:27:03;;;;;;;3.40;3.10;;;20.60;1.00;;;;;;5052781;28;20579;-82
2022/10/05 13:29:37;;;;;;;3.05;2.85;;;20.50;99.90;;;;;;5048967;28;20203;-82
2022/10/05 13:32:11;;;;;;;4.55;3.22;;;20.70;99.90;;;;;;5053714;28;20578;-82
2022/10/05 13:34:49;;;;;;;3.28;2.97;;;20.60;1.00;;;;;;5054474;28;20567;-82
2022/10/05 13:37:24;;;;;;;3.38;2.83;;;20.70;1.00;;;;;;5054599;28;20221;-82
2022/10/05 13:40:00;;;;;;;5.05;3.38;;;20.30;1.00;;;;;;5054617;28;20266;-82
2022/10/05 13:42:34;;;;;;;2.85;2.65;;;20.50;1.00;;;;;;5054159;28;20210;-83
2022/10/05 13:45:12;;;;;;;3.17;2.88;;;20.50;1.00;;;;;;5053491;28;20665;-82
2022/10/05 13:47:54;;;;;;;4.32;3.20;;;20.40;1.00;;;;;;5067286;28;20318;-81
2022/10/05 13:50:26;;;;;;;3.88;2.90;;;20.30;99.90;;;;;;5074400;28;20216;-81
2022/10/05 13:53:00;;;;;;;4.50;3.45;;;20.00;99.90;;;;;;5075037;28;20214;-82
2022/10/05 13:55:37;;;;;;;4.88;3.50;;;20.40;1.00;;;;;;5075064;28;20217;-82